createdAt,value
2024-01-20T00:00:19.762Z,-4.00
2024-01-20T00:02:46.851Z,-3.92
2024-01-20T00:05:14.097Z,-3.85
2024-01-20T00:07:44.020Z,-3.91
2024-01-20T00:10:12.904Z,-3.86
2024-01-20T00:12:41.636Z,-3.89
2024-01-20T00:15:10.097Z,-3.90
2024-01-20T00:17:38.926Z,-3.87
2024-01-20T00:20:07.036Z,-3.95
2024-01-20T00:22:34.367Z,-3.92
2024-01-20T00:25:03.615Z,-3.90
2024-01-20T00:27:31.923Z,-3.88
2024-01-20T00:29:59.689Z,-3.83
2024-01-20T00:32:27.198Z,-3.84
2024-01-20T00:35:04.793Z,-3.83
2024-01-20T00:37:38.825Z,-3.84
2024-01-20T00:40:07.184Z,-3.85
2024-01-20T00:42:34.621Z,-3.83
2024-01-20T00:45:01.785Z,-3.93
2024-01-20T00:47:29.035Z,-4.00
2024-01-20T00:49:56.310Z,-4.00
2024-01-20T00:52:23.593Z,-3.98
2024-01-20T00:54:51.717Z,-3.89
2024-01-20T00:57:18.900Z,-3.95
2024-01-20T00:59:46.664Z,-3.93
2024-01-20T01:02:16.687Z,-3.93
2024-01-20T01:04:44.167Z,-3.94
2024-01-20T01:07:11.387Z,-3.95
2024-01-20T01:09:38.530Z,-3.93
2024-01-20T01:12:05.807Z,-3.99
2024-01-20T01:14:32.896Z,-4.01
2024-01-20T01:17:00.295Z,-4.00
2024-01-20T01:19:27.375Z,-4.04
2024-01-20T01:21:54.521Z,-4.00
2024-01-20T01:24:22.287Z,-3.97
2024-01-20T01:26:49.610Z,-3.96
2024-01-20T01:29:17.093Z,-3.99
2024-01-20T01:31:45.311Z,-4.09
2024-01-20T01:34:12.569Z,-4.05
2024-01-20T01:36:39.725Z,-4.07
2024-01-20T01:39:06.826Z,-4.15
2024-01-20T01:41:34.057Z,-4.08
2024-01-20T01:44:01.149Z,-4.11
2024-01-20T01:46:28.584Z,-4.02
2024-01-20T01:48:55.992Z,-4.02
2024-01-20T01:51:23.149Z,-4.11
2024-01-20T01:53:50.913Z,-4.08
2024-01-20T01:56:18.027Z,-4.09
2024-01-20T01:58:45.292Z,-4.11
2024-01-20T02:01:12.408Z,-4.08
2024-01-20T02:03:40.310Z,-4.10
2024-01-20T02:06:08.230Z,-4.12
2024-01-20T02:08:39.185Z,-4.10
2024-01-20T02:11:06.909Z,-4.12
2024-01-20T02:13:34.584Z,-4.15
2024-01-20T02:16:02.806Z,-4.18
2024-01-20T02:18:30.632Z,-4.17
2024-01-20T02:20:57.929Z,-4.28
2024-01-20T02:23:25.061Z,-4.23
2024-01-20T02:25:52.176Z,-4.21
2024-01-20T02:28:19.375Z,-4.22
2024-01-20T02:30:47.794Z,-4.21
2024-01-20T02:33:15.130Z,-4.27
2024-01-20T02:35:42.296Z,-4.34
2024-01-20T02:38:09.410Z,-4.32
2024-01-20T02:40:36.527Z,-4.27
2024-01-20T02:43:03.727Z,-4.26
2024-01-20T02:45:30.944Z,-4.23
2024-01-20T02:47:59.241Z,-4.14
2024-01-20T02:50:26.603Z,-4.19
2024-01-20T02:52:53.829Z,-4.21
2024-01-20T02:58:30.154Z,-4.30
2024-01-20T03:00:59.772Z,-4.37
2024-01-20T03:03:27.111Z,-4.38
2024-01-20T03:05:54.371Z,-4.31
2024-01-20T03:08:21.693Z,-4.29
2024-01-20T03:10:48.781Z,-4.35
2024-01-20T03:13:15.885Z,-4.45
2024-01-20T03:15:43.210Z,-4.43
2024-01-20T03:18:12.257Z,-4.36
2024-01-20T03:20:39.664Z,-4.54
2024-01-20T03:23:07.585Z,-4.55
2024-01-20T03:25:34.678Z,-4.55
2024-01-20T03:28:01.733Z,-4.49
2024-01-20T03:30:28.838Z,-4.47
2024-01-20T03:32:56.200Z,-4.62
2024-01-20T03:35:23.752Z,-4.50
2024-01-20T03:37:51.004Z,-4.47
2024-01-20T03:40:18.180Z,-4.41
2024-01-20T03:42:45.263Z,-4.41
2024-01-20T03:45:12.449Z,-4.45
2024-01-20T03:47:39.630Z,-4.52
2024-01-20T03:50:07.853Z,-4.50
2024-01-20T03:52:35.062Z,-4.47
2024-01-20T03:55:02.215Z,-4.43
2024-01-20T03:57:29.443Z,-4.42
2024-01-20T03:59:56.624Z,-4.46
2024-01-20T04:02:23.774Z,-4.56
2024-01-20T04:04:50.918Z,-4.62
2024-01-20T04:07:17.990Z,-4.59
2024-01-20T04:09:45.130Z,-4.67
2024-01-20T04:12:12.349Z,-4.78
2024-01-20T04:14:39.484Z,-4.84
2024-01-20T04:17:06.729Z,-4.83
2024-01-20T04:19:34.087Z,-4.84
2024-01-20T04:22:01.231Z,-4.91
2024-01-20T04:24:28.404Z,-4.80
2024-01-20T04:26:55.562Z,-4.83
2024-01-20T04:29:22.727Z,-4.83
2024-01-20T04:31:49.815Z,-4.85
2024-01-20T04:34:17.045Z,-4.81
2024-01-20T04:36:44.161Z,-4.78
2024-01-20T04:39:11.440Z,-4.67
2024-01-20T04:41:38.852Z,-4.73
2024-01-20T04:44:05.995Z,-4.76
2024-01-20T04:46:33.058Z,-4.78
2024-01-20T04:49:00.375Z,-4.83
2024-01-20T04:51:27.614Z,-4.91
2024-01-20T04:53:54.754Z,-4.94
2024-01-20T04:56:23.639Z,-5.09
2024-01-20T04:58:51.052Z,-5.09
2024-01-20T05:01:18.321Z,-5.01
2024-01-20T05:03:45.725Z,-5.00
2024-01-20T05:06:13.045Z,-5.00
2024-01-20T05:08:40.200Z,-5.03
2024-01-20T05:11:07.879Z,-5.02
2024-01-20T05:13:35.145Z,-4.98
2024-01-20T05:16:02.249Z,-5.01
2024-01-20T05:18:29.464Z,-5.08
2024-01-20T05:20:56.672Z,-5.13
2024-01-20T05:23:23.783Z,-5.17
2024-01-20T05:25:50.972Z,-5.28
2024-01-20T05:28:18.082Z,-5.29
2024-01-20T05:30:45.221Z,-5.31
2024-01-20T05:33:12.443Z,-5.38
2024-01-20T05:35:39.631Z,-5.41
2024-01-20T05:38:06.719Z,-5.41
2024-01-20T05:40:33.854Z,-5.42
2024-01-20T05:43:00.992Z,-5.47
2024-01-20T05:45:28.160Z,-5.53
2024-01-20T05:47:55.345Z,-5.62
2024-01-20T05:50:22.543Z,-5.75
2024-01-20T05:52:49.998Z,-5.78
2024-01-20T05:55:17.170Z,-5.82
2024-01-20T05:57:44.264Z,-5.85
2024-01-20T06:00:11.922Z,-5.80
2024-01-20T06:02:39.100Z,-5.77
2024-01-20T06:05:06.445Z,-5.82
2024-01-20T06:07:33.593Z,-5.82
2024-01-20T06:10:00.811Z,-5.88
2024-01-20T06:12:28.046Z,-5.95
2024-01-20T06:14:55.254Z,-5.95
2024-01-20T06:17:22.436Z,-5.97
2024-01-20T06:19:49.585Z,-6.00
2024-01-20T06:22:16.687Z,-5.90
2024-01-20T06:24:43.806Z,-5.80
2024-01-20T06:27:10.973Z,-5.77
2024-01-20T06:29:42.538Z,-5.78
2024-01-20T06:32:09.672Z,-5.85
2024-01-20T06:34:36.878Z,-5.89
2024-01-20T06:37:04.042Z,-5.99
2024-01-20T06:39:31.342Z,-5.98
2024-01-20T06:41:58.568Z,-6.10
2024-01-20T06:44:25.741Z,-6.21
2024-01-20T06:46:52.793Z,-6.25
2024-01-20T06:49:20.101Z,-6.25
2024-01-20T06:51:48.320Z,-6.30
2024-01-20T06:54:15.423Z,-6.31
2024-01-20T06:56:43.604Z,-6.39
2024-01-20T06:59:10.897Z,-6.43
2024-01-20T07:01:38.368Z,-6.37
2024-01-20T07:04:05.604Z,-6.38
2024-01-20T07:06:32.776Z,-6.40
2024-01-20T07:08:59.882Z,-6.47
2024-01-20T07:11:27.020Z,-6.44
2024-01-20T07:13:54.499Z,-6.45
2024-01-20T07:16:21.994Z,-6.50
2024-01-20T07:18:50.332Z,-6.43
2024-01-20T07:21:18.655Z,-6.43
2024-01-20T07:23:45.813Z,-6.38
2024-01-20T07:26:12.923Z,-6.37
2024-01-20T07:28:40.579Z,-6.32
2024-01-20T07:31:07.676Z,-6.24
2024-01-20T07:33:35.140Z,-6.22
2024-01-20T07:36:03.710Z,-6.18
2024-01-20T07:38:30.905Z,-6.13
2024-01-20T07:41:00.203Z,-6.03
2024-01-20T07:43:27.351Z,-6.00
2024-01-20T07:45:55.537Z,-5.95
2024-01-20T07:48:22.956Z,-5.95
2024-01-20T07:50:50.239Z,-5.92
2024-01-20T07:53:17.354Z,-5.86
2024-01-20T07:55:44.602Z,-5.82
2024-01-20T07:58:11.939Z,-5.76
2024-01-20T08:00:39.408Z,-5.63
2024-01-20T08:03:06.640Z,-5.53
2024-01-20T08:05:35.662Z,-5.43
2024-01-20T08:08:03.097Z,-5.33
2024-01-20T08:10:30.205Z,-5.25
2024-01-20T08:12:57.379Z,-5.18
2024-01-20T08:15:24.706Z,-5.07
2024-01-20T08:17:52.044Z,-4.94
2024-01-20T08:20:19.253Z,-4.86
2024-01-20T08:22:46.335Z,-4.74
2024-01-20T08:25:14.759Z,-4.54
2024-01-20T08:27:41.875Z,-4.36
2024-01-20T08:30:09.356Z,-4.28
2024-01-20T08:32:36.601Z,-4.09
2024-01-20T08:35:04.021Z,-3.89
2024-01-20T08:37:31.147Z,-3.81
2024-01-20T08:39:58.528Z,-3.77
2024-01-20T08:42:27.306Z,-3.64
2024-01-20T08:44:55.425Z,-3.65
2024-01-20T08:47:22.725Z,-3.50
2024-01-20T08:49:52.920Z,-3.38
2024-01-20T08:52:20.486Z,-3.34
2024-01-20T08:54:48.239Z,-3.31
2024-01-20T08:57:15.560Z,-3.23
2024-01-20T08:59:42.699Z,-2.99
2024-01-20T09:02:10.016Z,-2.90
2024-01-20T09:04:37.143Z,-2.86
2024-01-20T09:07:04.620Z,-2.87
2024-01-20T09:09:31.833Z,-2.91
2024-01-20T09:11:58.984Z,-2.94
2024-01-20T09:14:26.108Z,-2.84
2024-01-20T09:16:53.175Z,-2.76
2024-01-20T09:19:20.390Z,-2.68
2024-01-20T09:21:47.908Z,-2.63
2024-01-20T09:24:15.164Z,-2.73
2024-01-20T09:26:42.294Z,-2.69
2024-01-20T09:29:09.976Z,-2.76
2024-01-20T09:31:37.145Z,-2.60
2024-01-20T09:34:04.858Z,-2.49
2024-01-20T09:36:32.307Z,-2.34
2024-01-20T09:38:59.426Z,-2.21
2024-01-20T09:41:27.537Z,-2.23
2024-01-20T09:43:54.699Z,-2.27
2024-01-20T09:46:22.360Z,-2.37
2024-01-20T09:48:56.167Z,-2.33
2024-01-20T09:51:25.905Z,-2.22
2024-01-20T09:53:56.225Z,-2.15
2024-01-20T09:56:23.421Z,-2.10
2024-01-20T09:58:50.637Z,-2.14
2024-01-20T10:01:18.028Z,-2.12
2024-01-20T10:03:45.820Z,-2.10
2024-01-20T10:06:12.959Z,-2.05
2024-01-20T10:08:40.065Z,-1.95
2024-01-20T10:11:07.172Z,-1.88
2024-01-20T10:13:34.261Z,-1.85
2024-01-20T10:16:01.402Z,-1.87
2024-01-20T10:18:28.677Z,-1.92
2024-01-20T10:21:05.363Z,-1.85
2024-01-20T10:23:41.958Z,-1.73
2024-01-20T10:26:12.168Z,-1.67
2024-01-20T10:28:39.314Z,-1.66
2024-01-20T10:31:10.230Z,-1.72
2024-01-20T10:33:38.380Z,-1.80
2024-01-20T10:36:07.134Z,-1.72
2024-01-20T10:38:41.568Z,-1.70
2024-01-20T10:41:08.918Z,-1.66
2024-01-20T10:43:40.814Z,-1.66
2024-01-20T10:46:35.236Z,-1.54
2024-01-20T10:49:05.506Z,-1.53
2024-01-20T10:51:34.517Z,-1.50
2024-01-20T10:54:02.503Z,-1.53
2024-01-20T10:56:31.070Z,-1.53
2024-01-20T10:59:09.916Z,-1.63
2024-01-20T11:01:41.084Z,-1.73
2024-01-20T11:04:08.984Z,-1.73
2024-01-20T11:06:37.123Z,-1.78
2024-01-20T11:09:04.431Z,-1.60
2024-01-20T11:11:36.083Z,-1.40
2024-01-20T11:14:03.363Z,-1.26
2024-01-20T11:16:32.229Z,-1.30
2024-01-20T11:19:09.698Z,-1.26
2024-01-20T11:21:37.136Z,-1.35
2024-01-20T11:24:05.975Z,-1.21
2024-01-20T11:26:36.699Z,-1.05
2024-01-20T11:29:08.067Z,-0.95
2024-01-20T11:31:35.351Z,-0.84
2024-01-20T11:34:04.261Z,-0.68
2024-01-20T11:36:32.326Z,-0.61
2024-01-20T11:39:00.494Z,-0.67
2024-01-20T11:41:28.044Z,-0.68
2024-01-20T11:43:55.231Z,-0.63
2024-01-20T11:46:22.427Z,-0.61
2024-01-20T11:48:49.786Z,-0.72
2024-01-20T11:51:17.677Z,-0.78
2024-01-20T11:53:45.199Z,-0.81
2024-01-20T11:56:12.424Z,-0.93
2024-01-20T11:58:39.587Z,-0.86
2024-01-20T12:01:06.932Z,-0.90
2024-01-20T12:03:34.183Z,-0.90
2024-01-20T12:06:05.416Z,-0.90
2024-01-20T12:08:33.344Z,-0.94
2024-01-20T12:11:01.199Z,-0.93
2024-01-20T12:13:33.821Z,-0.89
2024-01-20T12:16:01.164Z,-0.81
2024-01-20T12:18:28.477Z,-0.70
2024-01-20T12:20:55.682Z,-0.68
2024-01-20T12:23:22.950Z,-0.83
2024-01-20T12:25:54.357Z,-0.76
2024-01-20T12:28:22.079Z,-0.76
2024-01-20T12:30:49.666Z,-0.80
2024-01-20T12:33:16.878Z,-0.73
2024-01-20T12:35:44.203Z,-0.71
2024-01-20T12:38:11.304Z,-0.65
2024-01-20T12:40:38.466Z,-0.68
2024-01-20T12:43:05.630Z,-0.76
2024-01-20T12:45:32.789Z,-0.81
2024-01-20T12:48:00.190Z,-0.83
2024-01-20T12:50:27.344Z,-0.82
2024-01-20T12:52:54.429Z,-0.79
2024-01-20T12:55:21.551Z,-0.77
2024-01-20T12:57:48.847Z,-0.73
2024-01-20T13:00:16.452Z,-0.73
2024-01-20T13:02:43.647Z,-0.69
2024-01-20T13:05:11.150Z,-0.65
2024-01-20T13:07:38.311Z,-0.72
2024-01-20T13:10:05.771Z,-0.65
2024-01-20T13:12:34.044Z,-0.68
2024-01-20T13:15:01.644Z,-0.65
2024-01-20T13:17:29.349Z,-0.73
2024-01-20T13:19:57.031Z,-0.74
2024-01-20T13:22:24.238Z,-0.76
2024-01-20T13:24:51.359Z,-0.81
2024-01-20T13:27:18.472Z,-0.85
2024-01-20T13:29:45.799Z,-0.77
2024-01-20T13:32:13.211Z,-0.75
2024-01-20T13:34:40.440Z,-0.80
2024-01-20T13:37:07.578Z,-0.83
2024-01-20T13:39:34.731Z,-0.93
2024-01-20T13:42:02.137Z,-0.90
2024-01-20T13:44:29.244Z,-0.90
2024-01-20T13:46:56.327Z,-0.94
2024-01-20T13:49:23.558Z,-0.97
2024-01-20T13:51:50.732Z,-0.95
2024-01-20T13:54:17.894Z,-0.95
2024-01-20T13:56:44.973Z,-0.97
2024-01-20T13:59:12.048Z,-1.06
2024-01-20T14:01:39.307Z,-1.09
2024-01-20T14:04:06.586Z,-1.09
2024-01-20T14:06:33.817Z,-1.11
2024-01-20T14:09:01.028Z,-1.14
2024-01-20T14:11:28.497Z,-1.19
2024-01-20T14:13:55.715Z,-1.19
2024-01-20T14:16:22.813Z,-1.18
2024-01-20T14:18:50.029Z,-1.23
2024-01-20T14:21:17.257Z,-1.24
2024-01-20T14:23:44.358Z,-1.30
2024-01-20T14:26:11.487Z,-1.31
2024-01-20T14:28:38.597Z,-1.29
2024-01-20T14:31:05.756Z,-1.35
2024-01-20T14:33:32.998Z,-1.40
2024-01-20T14:36:00.437Z,-1.44
2024-01-20T14:38:27.528Z,-1.45
2024-01-20T14:40:54.649Z,-1.43
2024-01-20T14:43:21.741Z,-1.46
2024-01-20T14:45:48.886Z,-1.51
2024-01-20T14:48:16.212Z,-1.53
2024-01-20T14:50:43.418Z,-1.57
2024-01-20T14:53:10.678Z,-1.60
2024-01-20T14:55:37.829Z,-1.64
2024-01-20T14:58:05.574Z,-1.66
2024-01-20T15:00:32.748Z,-1.68
2024-01-20T15:03:00.177Z,-1.68
2024-01-20T15:05:27.351Z,-1.70
2024-01-20T15:07:54.454Z,-1.70
2024-01-20T15:10:22.499Z,-1.73
2024-01-20T15:12:50.050Z,-1.77
2024-01-20T15:15:17.410Z,-1.80
2024-01-20T15:17:44.518Z,-1.81
2024-01-20T15:20:12.258Z,-1.84
2024-01-20T15:22:39.463Z,-1.91
2024-01-20T15:25:07.107Z,-1.93
2024-01-20T15:27:34.319Z,-1.94
2024-01-20T15:30:01.668Z,-1.97
2024-01-20T15:32:28.931Z,-1.98
2024-01-20T15:34:56.183Z,-2.02
2024-01-20T15:37:23.306Z,-2.02
2024-01-20T15:39:50.607Z,-2.05
2024-01-20T15:42:18.697Z,-2.07
2024-01-20T15:44:45.803Z,-2.08
2024-01-20T15:47:12.963Z,-2.10
2024-01-20T15:49:40.190Z,-2.13
2024-01-20T15:52:07.290Z,-2.15
2024-01-20T15:54:34.519Z,-2.17
2024-01-20T15:57:01.635Z,-2.24
2024-01-20T15:59:28.716Z,-2.30
2024-01-20T16:01:55.830Z,-2.31
2024-01-20T16:04:23.145Z,-2.29
2024-01-20T16:06:51.455Z,-2.36
2024-01-20T16:09:18.688Z,-2.40
2024-01-20T16:11:51.488Z,-2.41
2024-01-20T16:14:25.459Z,-2.46
2024-01-20T16:16:52.790Z,-2.50
2024-01-20T16:19:20.005Z,-2.54
2024-01-20T16:21:50.255Z,-2.56
2024-01-20T16:24:20.815Z,-2.57
2024-01-20T16:26:48.106Z,-2.60
2024-01-20T16:29:15.263Z,-2.57
2024-01-20T16:31:42.608Z,-2.55
2024-01-20T16:34:10.022Z,-2.55
2024-01-20T16:36:40.403Z,-2.55
2024-01-20T16:39:08.737Z,-2.59
2024-01-20T16:41:36.748Z,-2.61
2024-01-20T16:44:05.384Z,-2.67
2024-01-20T16:46:33.099Z,-2.75
2024-01-20T16:49:00.479Z,-2.77
2024-01-20T16:51:28.133Z,-2.81
2024-01-20T16:53:55.388Z,-2.88
2024-01-20T16:56:25.507Z,-2.88
2024-01-20T16:58:52.666Z,-2.88
2024-01-20T17:01:19.864Z,-2.96
2024-01-20T17:03:47.215Z,-3.01
2024-01-20T17:06:19.428Z,-3.07
2024-01-20T17:08:46.918Z,-3.13
2024-01-20T17:11:14.024Z,-3.14
2024-01-20T17:13:41.095Z,-3.15
2024-01-20T17:16:08.228Z,-3.16
2024-01-20T17:18:35.443Z,-3.15
2024-01-20T17:21:04.321Z,-3.15
2024-01-20T17:23:31.615Z,-3.14
2024-01-20T17:25:58.840Z,-3.10
2024-01-20T17:28:25.994Z,-3.13
2024-01-20T17:30:53.239Z,-3.16
2024-01-20T17:33:20.523Z,-3.16
2024-01-20T17:35:47.957Z,-3.16
2024-01-20T17:38:15.182Z,-3.16
2024-01-20T17:40:45.272Z,-3.18
2024-01-20T17:43:14.377Z,-3.33
2024-01-20T17:45:42.060Z,-3.42
2024-01-20T17:48:10.401Z,-3.55
2024-01-20T17:50:37.867Z,-3.46
2024-01-20T17:53:04.943Z,-3.48
2024-01-20T17:55:32.372Z,-3.48
2024-01-20T17:58:01.060Z,-3.48
2024-01-20T18:00:29.664Z,-3.45
2024-01-20T18:02:56.973Z,-3.41
2024-01-20T18:05:24.346Z,-3.48
2024-01-20T18:07:52.643Z,-3.52
2024-01-20T18:10:19.973Z,-3.49
2024-01-20T18:12:47.250Z,-3.47
2024-01-20T18:15:14.862Z,-3.48
2024-01-20T18:17:42.730Z,-3.49
2024-01-20T18:20:10.036Z,-3.50
2024-01-20T18:22:37.248Z,-3.49
2024-01-20T18:25:04.763Z,-3.47
2024-01-20T18:27:31.901Z,-3.48
2024-01-20T18:29:58.973Z,-3.51
2024-01-20T18:32:26.188Z,-3.54
2024-01-20T18:34:53.365Z,-3.58
2024-01-20T18:37:20.472Z,-3.58
2024-01-20T18:39:47.611Z,-3.58
2024-01-20T18:42:19.042Z,-3.61
2024-01-20T18:44:48.466Z,-3.67
2024-01-20T18:47:15.847Z,-3.70
2024-01-20T18:49:43.160Z,-3.72
2024-01-20T18:52:10.475Z,-3.71
2024-01-20T18:54:39.164Z,-3.73
2024-01-20T18:57:07.324Z,-3.88
2024-01-20T18:59:34.530Z,-4.09
2024-01-20T19:02:01.698Z,-4.19
2024-01-20T19:04:28.938Z,-4.21
2024-01-20T19:06:56.664Z,-4.14
2024-01-20T19:09:23.876Z,-4.10
2024-01-20T19:11:51.120Z,-4.04
2024-01-20T19:14:18.297Z,-4.02
2024-01-20T19:16:45.554Z,-4.01
2024-01-20T19:19:13.165Z,-4.05
2024-01-20T19:21:41.721Z,-4.10
2024-01-20T19:24:09.074Z,-4.09
2024-01-20T19:26:36.336Z,-4.08
2024-01-20T19:29:03.713Z,-4.09
2024-01-20T19:31:30.800Z,-4.09
2024-01-20T19:33:58.787Z,-4.09
2024-01-20T19:36:27.014Z,-4.15
2024-01-20T19:38:54.526Z,-4.13
2024-01-20T19:41:21.680Z,-4.20
2024-01-20T19:43:48.899Z,-4.18
2024-01-20T19:46:16.394Z,-4.18
2024-01-20T19:48:43.575Z,-4.19
2024-01-20T19:51:10.854Z,-4.20
2024-01-20T19:53:37.953Z,-4.27
2024-01-20T19:56:06.985Z,-4.36
2024-01-20T19:58:36.197Z,-4.44
2024-01-20T20:01:03.616Z,-4.40
2024-01-20T20:03:30.907Z,-4.36
2024-01-20T20:05:58.164Z,-4.40
2024-01-20T20:08:25.354Z,-4.42
2024-01-20T20:10:52.605Z,-4.41
2024-01-20T20:13:20.353Z,-4.45
2024-01-20T20:15:47.890Z,-4.41
2024-01-20T20:18:15.268Z,-4.42
2024-01-20T20:20:43.237Z,-4.43
2024-01-20T20:23:10.974Z,-4.48
2024-01-20T20:25:38.065Z,-4.55
2024-01-20T20:28:05.312Z,-4.57
2024-01-20T20:30:32.434Z,-4.56
2024-01-20T20:32:59.661Z,-4.57
2024-01-20T20:35:26.912Z,-4.59
2024-01-20T20:37:54.079Z,-4.62
2024-01-20T20:40:21.226Z,-4.65
2024-01-20T20:42:48.435Z,-4.71
2024-01-20T20:45:15.724Z,-4.73
2024-01-20T20:47:42.901Z,-4.69
2024-01-20T20:50:11.510Z,-4.68
2024-01-20T20:52:38.591Z,-4.70
2024-01-20T20:55:06.048Z,-4.69
2024-01-20T20:57:33.254Z,-4.71
2024-01-20T21:00:00.502Z,-4.74
2024-01-20T21:02:27.679Z,-4.77
2024-01-20T21:04:54.818Z,-4.80
2024-01-20T21:07:24.008Z,-4.84
2024-01-20T21:09:53.918Z,-4.87
2024-01-20T21:12:21.206Z,-4.90
2024-01-20T21:14:48.363Z,-4.92
2024-01-20T21:17:15.463Z,-4.94
2024-01-20T21:19:42.887Z,-4.98
2024-01-20T21:22:10.091Z,-5.00
2024-01-20T21:24:37.263Z,-5.02
2024-01-20T21:27:04.541Z,-5.10
2024-01-20T21:29:31.724Z,-5.15
2024-01-20T21:31:58.816Z,-5.17
2024-01-20T21:34:25.975Z,-5.19
2024-01-20T21:36:53.102Z,-5.23
2024-01-20T21:39:20.319Z,-5.22
2024-01-20T21:41:48.225Z,-5.20
2024-01-20T21:44:15.328Z,-5.23
2024-01-20T21:46:42.687Z,-5.17
2024-01-20T21:49:09.964Z,-5.19
2024-01-20T21:51:40.459Z,-5.19
2024-01-20T21:54:08.470Z,-5.17
2024-01-20T21:56:39.580Z,-5.23
2024-01-20T21:59:06.772Z,-5.27
2024-01-20T22:01:36.856Z,-5.25
2024-01-20T22:04:04.688Z,-5.25
2024-01-20T22:06:31.986Z,-5.30
2024-01-20T22:08:59.172Z,-5.33
2024-01-20T22:11:28.324Z,-5.35
2024-01-20T22:13:55.419Z,-5.33
2024-01-20T22:16:22.581Z,-5.35
2024-01-20T22:18:49.760Z,-5.38
2024-01-20T22:21:17.046Z,-5.45
2024-01-20T22:23:44.374Z,-5.48
2024-01-20T22:26:18.080Z,-5.52
2024-01-20T22:28:46.464Z,-5.53
2024-01-20T22:31:13.665Z,-5.52
2024-01-20T22:33:41.177Z,-5.54
2024-01-20T22:36:08.488Z,-5.60
2024-01-20T22:38:35.749Z,-5.65
2024-01-20T22:41:05.172Z,-5.65
2024-01-20T22:43:32.602Z,-5.67
2024-01-20T22:45:59.716Z,-5.65
2024-01-20T22:48:33.184Z,-5.67
2024-01-20T22:51:00.436Z,-5.67
2024-01-20T22:53:31.690Z,-5.66
2024-01-20T22:55:58.834Z,-5.71
2024-01-20T22:58:25.999Z,-5.75
2024-01-20T23:00:53.238Z,-5.83
2024-01-20T23:03:20.523Z,-5.78
2024-01-20T23:05:47.776Z,-5.74
2024-01-20T23:08:14.910Z,-5.74
2024-01-20T23:10:41.998Z,-5.74
2024-01-20T23:13:09.144Z,-5.87
2024-01-20T23:15:36.387Z,-5.92
2024-01-20T23:18:03.604Z,-5.96
2024-01-20T23:20:30.914Z,-5.92
2024-01-20T23:22:58.084Z,-5.98
2024-01-20T23:25:25.812Z,-6.03
2024-01-20T23:27:53.883Z,-6.11
2024-01-20T23:30:21.965Z,-6.15
2024-01-20T23:32:49.199Z,-6.17
2024-01-20T23:35:16.385Z,-6.16
2024-01-20T23:37:43.462Z,-6.18
2024-01-20T23:40:12.417Z,-6.22
2024-01-20T23:42:39.767Z,-6.23
2024-01-20T23:45:07.100Z,-6.20
2024-01-20T23:47:34.425Z,-6.18
2024-01-20T23:50:01.770Z,-6.15
2024-01-20T23:52:28.945Z,-6.20
2024-01-20T23:54:56.032Z,-6.24
2024-01-20T23:57:23.180Z,-6.24
2024-01-20T23:59:50.306Z,-6.29
